Pagrindinis puslapis
METAR-TAF:

METAR-TAF

Oro uostai :

Marianhamina, Suomija

platuma: 60-07N, ilguma: 019-54E, Aukštis: 6 m

Dabartinis oras

Ataskaita buvo paskelbta 6 minutes, ne 04:20 UTC
Vėjas 8 kt iš Pietryčių, svyruoja nuo Rytų/Pietryčių ir Pietų
Temperatūra 23°C
Drėgmė 78%
Slėgis 1013 hPa
Matomumas 10 km arba daugiau
nėra debesų žemiau 1500 m ir nėra kamuolinių lietaus debesų

METAR: EFMA 160420Z 14008KT 120V180 CAVOK 23/19 Q1013

Laikas: 07:26 (04:26 UTC)

Prognozė

Ataskaita buvo paskelbta 2 valandos ir 1 minutes, ne 02:25 UTC
Prognozė galioja nuo 16 metu 03 UTC su 16 metu 12 UTC
Vėjas 6 kt iš Rytų/Pietryčių
Matomumas 10 km arba daugiau
nėra debesų žemiau 1500 m ir nėra kamuolinių lietaus debesų
Tikimybė 40%
nuo 16 metu 07 UTC su 16 metu 12 UTC
Mažai debesys ne aukštis 4500 ft, Liūtiniai kamuoliniai debesys.

TAF: EFMA 160225Z 1603/1612 12006KT CAVOK PROB40 1607/1612 FEW045CB

Orai ataskaitas ir orų prognozės (METAR, TAF).

turimą stotys yra geltonos ir raudonos taškus žemėlapyje.

Perkelti pele per norėdami pamatyti stoties vardą.

Tada spustelėkite, norėdami matyti oro stebėjimo ir prognozės.

Norėdami pakeisti žemėlapį: spustelėkite ant žalios mygtukų su juodo kryžiaus žemyn,; žalią mygtuką su brūkšneliu, jei norite nutolinti; arba žalių rodyklių gretimoms žemėlapius.


METAR-TAF: